createdAt,value
2019-06-07T00:00:36.778Z,1.60
2019-06-07T00:02:46.255Z,1.57
2019-06-07T00:05:17.995Z,1.70
2019-06-07T00:07:42.224Z,1.60
2019-06-07T00:10:15.371Z,1.22
2019-06-07T00:12:38.737Z,1.80
2019-06-07T00:15:10.559Z,1.52
2019-06-07T00:17:34.959Z,1.60
2019-06-07T00:20:03.850Z,1.20
2019-06-07T00:22:33.375Z,1.42
2019-06-07T00:24:59.936Z,1.45
2019-06-07T00:27:26.956Z,1.57
2019-06-07T00:29:53.990Z,1.72
2019-06-07T00:32:23.466Z,1.00
2019-06-07T00:34:50.512Z,1.50
2019-06-07T00:37:20.613Z,1.62
2019-06-07T00:39:59.453Z,1.60
2019-06-07T00:42:17.505Z,1.40
2019-06-07T00:44:43.911Z,0.98
2019-06-07T00:47:11.056Z,0.88
2019-06-07T00:49:41.368Z,0.90
2019-06-07T00:52:08.187Z,1.47
2019-06-07T00:54:35.290Z,1.60
2019-06-07T00:57:02.320Z,1.20
2019-06-07T00:59:29.898Z,1.70
2019-06-07T01:01:57.006Z,1.70
2019-06-07T01:04:26.307Z,1.70
2019-06-07T01:06:52.871Z,1.20
2019-06-07T01:09:22.404Z,1.80
2019-06-07T01:11:48.769Z,1.32
2019-06-07T01:14:19.388Z,1.20
2019-06-07T01:16:57.117Z,1.37
2019-06-07T01:19:13.854Z,1.60
2019-06-07T01:21:40.918Z,0.90
2019-06-07T01:24:12.356Z,1.40
2019-06-07T01:26:36.911Z,1.67
2019-06-07T01:29:04.026Z,1.32
2019-06-07T01:31:31.699Z,1.37
2019-06-07T01:33:59.234Z,1.75
2019-06-07T01:36:29.574Z,1.77
2019-06-07T01:38:55.340Z,1.00
2019-06-07T01:41:25.265Z,1.80
2019-06-07T01:43:51.252Z,1.67
2019-06-07T01:46:18.264Z,1.40
2019-06-07T01:48:49.682Z,1.22
2019-06-07T01:51:15.233Z,1.55
2019-06-07T01:53:42.216Z,1.80
2019-06-07T01:56:09.402Z,2.10
2019-06-07T01:58:36.408Z,1.37
2019-06-07T02:01:03.392Z,1.62
2019-06-07T02:03:33.120Z,1.90
2019-06-07T02:06:00.277Z,1.77
2019-06-07T02:08:33.547Z,2.17
2019-06-07T02:10:56.077Z,2.02
2019-06-07T02:13:23.718Z,1.80
2019-06-07T02:15:51.437Z,1.80
2019-06-07T02:18:21.794Z,1.92
2019-06-07T02:20:47.527Z,1.75
2019-06-07T02:23:14.660Z,1.40
2019-06-07T02:25:48.723Z,2.00
2019-06-07T02:28:27.228Z,1.37
2019-06-07T02:30:47.383Z,1.70
2019-06-07T02:33:08.621Z,2.08
2019-06-07T02:35:40.665Z,2.00
2019-06-07T02:38:04.519Z,2.05
2019-06-07T02:40:36.493Z,1.27
2019-06-07T02:43:00.416Z,1.90
2019-06-07T02:45:34.225Z,1.70
2019-06-07T02:47:56.312Z,1.42
2019-06-07T02:50:26.323Z,1.98
2019-06-07T02:52:53.184Z,2.08
2019-06-07T02:55:20.195Z,1.47
2019-06-07T02:57:49.270Z,1.17
2019-06-07T03:01:00.091Z,1.00
2019-06-07T03:03:05.662Z,1.10
2019-06-07T03:05:36.272Z,1.42
2019-06-07T03:08:02.429Z,0.98
2019-06-07T03:10:31.711Z,1.50
2019-06-07T03:13:00.371Z,0.95
2019-06-07T03:15:35.418Z,2.17
2019-06-07T03:18:02.807Z,2.20
2019-06-07T03:20:33.195Z,2.50
2019-06-07T03:23:00.265Z,2.35
2019-06-07T03:25:33.535Z,2.20
2019-06-07T03:27:59.864Z,2.05
2019-06-07T03:30:58.074Z,2.20
2019-06-07T03:32:55.972Z,2.25
2019-06-07T03:35:23.119Z,2.17
2019-06-07T03:37:50.255Z,2.30
2019-06-07T03:40:17.402Z,1.85
2019-06-07T03:42:44.451Z,2.08
2019-06-07T03:45:11.477Z,1.92
2019-06-07T03:47:42.084Z,2.15
2019-06-07T03:50:07.336Z,2.05
2019-06-07T03:52:37.129Z,2.00
2019-06-07T03:55:05.063Z,2.08
2019-06-07T03:58:23.793Z,2.15
2019-06-07T04:00:01.104Z,2.33
2019-06-07T04:02:30.227Z,2.50
2019-06-07T04:04:57.037Z,2.58
2019-06-07T04:07:24.344Z,2.10
2019-06-07T04:09:51.295Z,2.33
2019-06-07T04:12:18.353Z,2.30
2019-06-07T04:14:45.355Z,2.12
2019-06-07T04:17:12.409Z,2.12
2019-06-07T04:19:43.129Z,1.80
2019-06-07T04:22:08.394Z,1.72
2019-06-07T04:24:38.875Z,1.72
2019-06-07T04:27:04.199Z,2.00
2019-06-07T04:29:33.922Z,1.62
2019-06-07T04:32:00.107Z,2.40
2019-06-07T04:34:29.158Z,1.40
2019-06-07T04:36:59.503Z,1.60
2019-06-07T04:39:26.472Z,1.50
2019-06-07T04:41:54.282Z,1.70
2019-06-07T04:44:23.375Z,1.55
2019-06-07T04:46:50.606Z,1.77
2019-06-07T04:49:20.155Z,1.20
2019-06-07T04:51:48.071Z,1.40
2019-06-07T04:54:15.061Z,1.72
2019-06-07T04:56:44.707Z,1.52
2019-06-07T04:59:11.010Z,1.85
2019-06-07T05:01:41.419Z,1.60
2019-06-07T05:04:06.865Z,1.30
2019-06-07T05:06:36.291Z,1.32
2019-06-07T05:09:04.737Z,1.30
2019-06-07T05:11:33.367Z,1.02
2019-06-07T05:14:00.667Z,1.10
2019-06-07T05:16:27.696Z,1.00
2019-06-07T05:18:54.736Z,1.30
2019-06-07T05:21:21.792Z,1.37
2019-06-07T05:24:06.410Z,1.10
2019-06-07T05:26:17.684Z,1.00
2019-06-07T05:28:45.420Z,0.90
2019-06-07T05:31:12.622Z,0.85
2019-06-07T05:33:41.240Z,1.10
2019-06-07T05:36:09.571Z,1.07
2019-06-07T05:38:40.522Z,0.93
2019-06-07T05:41:05.371Z,0.78
2019-06-07T05:43:35.129Z,1.10
2019-06-07T05:46:01.183Z,0.78
2019-06-07T05:48:28.256Z,0.90
2019-06-07T05:50:57.472Z,0.90
2019-06-07T05:53:24.026Z,0.85
2019-06-07T05:55:51.022Z,0.85
2019-06-07T05:58:18.124Z,0.70
2019-06-07T06:00:47.624Z,0.95
2019-06-07T06:03:13.931Z,0.95
2019-06-07T06:05:45.772Z,0.65
2019-06-07T06:08:09.927Z,0.90
2019-06-07T06:10:39.595Z,0.80
2019-06-07T06:13:06.003Z,0.70
2019-06-07T06:15:48.645Z,0.95
2019-06-07T06:18:02.142Z,1.17
2019-06-07T06:20:34.864Z,0.78
2019-06-07T06:22:58.274Z,0.72
2019-06-07T06:25:34.064Z,0.80
2019-06-07T06:28:10.209Z,0.60
2019-06-07T06:30:24.700Z,0.65
2019-06-07T06:32:57.768Z,0.78
2019-06-07T06:35:20.660Z,0.70
2019-06-07T06:37:52.952Z,0.82
2019-06-07T06:40:17.489Z,0.80
2019-06-07T06:42:48.352Z,0.82
2019-06-07T06:45:15.282Z,0.80
2019-06-07T06:47:43.330Z,0.98
2019-06-07T06:50:11.716Z,0.90
2019-06-07T06:52:42.277Z,1.00
2019-06-07T06:55:08.670Z,1.10
2019-06-07T06:57:35.754Z,1.20
2019-06-07T07:00:06.099Z,1.80
2019-06-07T07:02:34.980Z,1.00
2019-06-07T07:05:02.685Z,0.90
2019-06-07T07:07:30.289Z,1.10
2019-06-07T07:09:59.558Z,0.90
2019-06-07T07:12:26.777Z,1.00
2019-06-07T07:14:55.887Z,0.80
2019-06-07T07:17:46.962Z,0.85
2019-06-07T07:19:53.063Z,0.72
2019-06-07T07:22:20.517Z,0.90
2019-06-07T07:24:49.739Z,1.10
2019-06-07T07:27:17.436Z,0.93
2019-06-07T07:29:47.838Z,1.00
2019-06-07T07:32:13.416Z,1.10
2019-06-07T07:34:40.497Z,1.00
2019-06-07T07:37:07.494Z,0.80
2019-06-07T07:39:34.606Z,1.00
2019-06-07T07:42:20.201Z,0.78
2019-06-07T07:44:30.487Z,0.90
2019-06-07T07:46:57.452Z,0.98
2019-06-07T07:49:24.554Z,0.90
2019-06-07T07:51:55.083Z,0.90
2019-06-07T07:54:20.477Z,0.70
2019-06-07T07:56:48.951Z,0.70
2019-06-07T07:59:16.377Z,0.70
2019-06-07T08:01:43.379Z,0.70
2019-06-07T08:04:10.507Z,0.60
2019-06-07T08:06:37.486Z,0.60
2019-06-07T08:09:07.245Z,0.62
2019-06-07T08:11:34.323Z,0.70
2019-06-07T08:14:02.294Z,0.70
2019-06-07T08:16:29.389Z,0.75
2019-06-07T08:19:02.293Z,0.90
2019-06-07T08:21:27.127Z,0.50
2019-06-07T08:23:58.335Z,0.70
2019-06-07T08:26:23.161Z,0.70
2019-06-07T08:28:53.215Z,0.70
2019-06-07T08:31:19.044Z,0.68
2019-06-07T08:33:46.084Z,0.55
2019-06-07T08:36:21.851Z,0.70
2019-06-07T08:38:47.859Z,0.90
2019-06-07T08:41:12.258Z,0.72
2019-06-07T08:43:39.731Z,0.60
2019-06-07T08:46:07.882Z,0.72
2019-06-07T08:48:35.236Z,0.70
2019-06-07T08:51:08.155Z,0.85
2019-06-07T08:53:32.291Z,0.60
2019-06-07T08:56:08.829Z,0.70
2019-06-07T08:58:28.156Z,0.72
2019-06-07T09:00:56.268Z,0.78
2019-06-07T09:03:24.147Z,0.88
2019-06-07T09:05:53.472Z,0.85
2019-06-07T09:08:29.764Z,0.70
2019-06-07T09:10:48.898Z,0.80
2019-06-07T09:13:16.795Z,0.70
2019-06-07T09:15:43.900Z,0.80
2019-06-07T09:18:37.853Z,0.78
2019-06-07T09:20:45.706Z,0.80
2019-06-07T09:23:17.140Z,0.90
2019-06-07T09:25:56.411Z,0.68
2019-06-07T09:28:18.756Z,0.70
2019-06-07T09:30:41.645Z,0.68
2019-06-07T09:33:09.780Z,0.80
2019-06-07T09:35:37.717Z,0.65
2019-06-07T09:38:18.146Z,0.53
2019-06-07T09:40:33.793Z,0.60
2019-06-07T09:43:54.261Z,0.60
2019-06-07T09:45:33.012Z,1.30
2019-06-07T09:48:04.450Z,1.10
2019-06-07T09:50:29.104Z,0.90
2019-06-07T09:53:02.687Z,1.10
2019-06-07T09:55:25.469Z,1.40
2019-06-07T09:57:52.648Z,1.20
2019-06-07T10:00:39.761Z,1.40
2019-06-07T10:02:48.997Z,1.35
2019-06-07T10:05:16.063Z,1.50
2019-06-07T10:08:00.058Z,1.50
2019-06-07T10:12:40.896Z,1.60
2019-06-07T10:15:09.037Z,1.57
2019-06-07T10:17:36.208Z,1.47
2019-06-07T10:20:05.812Z,1.25
2019-06-07T10:22:32.943Z,1.30
2019-06-07T10:24:59.945Z,1.55
2019-06-07T10:27:27.008Z,1.20
2019-06-07T10:29:56.410Z,1.42
2019-06-07T10:32:23.515Z,1.10
2019-06-07T10:34:50.610Z,1.27
2019-06-07T10:37:17.719Z,1.12
2019-06-07T10:39:48.533Z,1.25
2019-06-07T10:42:13.651Z,1.20
2019-06-07T10:44:41.787Z,1.15
2019-06-07T10:47:10.003Z,1.00
2019-06-07T10:49:39.605Z,0.90
2019-06-07T10:52:08.518Z,0.95
2019-06-07T10:54:35.709Z,0.80
2019-06-07T10:57:03.001Z,1.10
2019-06-07T10:59:29.971Z,1.00
2019-06-07T11:01:58.163Z,1.30
2019-06-07T11:04:25.133Z,1.20
2019-06-07T11:06:52.172Z,1.22
2019-06-07T11:09:19.255Z,0.95
2019-06-07T11:11:47.186Z,1.20
2019-06-07T11:14:14.787Z,1.00
2019-06-07T11:16:41.958Z,1.50
2019-06-07T11:19:13.603Z,1.20
2019-06-07T11:21:37.865Z,1.30
2019-06-07T11:24:06.036Z,0.90
2019-06-07T11:26:33.182Z,1.10
2019-06-07T11:29:00.264Z,1.30
2019-06-07T11:31:27.400Z,1.22
2019-06-07T11:33:54.473Z,1.20
2019-06-07T11:36:21.572Z,1.20
2019-06-07T11:38:48.819Z,1.02
2019-06-07T11:41:16.019Z,1.22
2019-06-07T11:43:43.180Z,1.37
2019-06-07T11:46:11.238Z,1.30
2019-06-07T11:48:38.347Z,1.30
2019-06-07T11:51:06.690Z,1.20
2019-06-07T11:53:34.014Z,1.40
2019-06-07T11:56:01.144Z,1.15
2019-06-07T11:58:28.425Z,1.15
2019-06-07T12:00:55.521Z,1.22
2019-06-07T12:03:22.603Z,1.30
2019-06-07T12:05:49.715Z,1.20
2019-06-07T12:08:19.049Z,1.20
2019-06-07T12:10:46.150Z,1.20
2019-06-07T12:13:15.353Z,1.20
2019-06-07T12:15:42.016Z,1.27
2019-06-07T12:18:09.246Z,1.40
2019-06-07T12:20:36.409Z,1.30
2019-06-07T12:23:03.395Z,0.95
2019-06-07T12:25:30.520Z,1.15
2019-06-07T12:27:57.500Z,1.10
2019-06-07T12:30:27.884Z,1.27
2019-06-07T12:32:55.673Z,1.20
2019-06-07T12:35:22.765Z,1.20
2019-06-07T12:37:49.721Z,1.27
2019-06-07T12:40:27.702Z,1.20
2019-06-07T12:42:45.769Z,1.30
2019-06-07T12:45:30.782Z,1.10
2019-06-07T12:47:41.988Z,1.20
2019-06-07T12:50:09.860Z,1.25
2019-06-07T12:52:39.163Z,1.22
2019-06-07T12:55:07.468Z,1.10
2019-06-07T12:57:34.473Z,1.27
2019-06-07T13:00:01.509Z,1.10
2019-06-07T13:02:28.524Z,1.10
2019-06-07T13:04:55.589Z,1.30
2019-06-07T13:07:24.169Z,0.90
2019-06-07T13:09:51.526Z,1.10
2019-06-07T13:12:19.776Z,0.88
2019-06-07T13:14:46.941Z,1.00
2019-06-07T13:17:14.015Z,1.00
2019-06-07T13:19:41.052Z,1.00
2019-06-07T13:22:08.057Z,1.10
2019-06-07T13:24:35.095Z,1.07
2019-06-07T13:27:02.075Z,0.98
2019-06-07T13:29:31.753Z,1.00
2019-06-07T13:31:57.889Z,1.22
2019-06-07T13:34:25.005Z,0.82
2019-06-07T13:36:53.081Z,1.00
2019-06-07T13:39:23.247Z,1.07
2019-06-07T13:41:49.006Z,0.90
2019-06-07T13:44:16.720Z,0.80
2019-06-07T13:46:43.841Z,0.80
2019-06-07T13:49:10.958Z,0.90
2019-06-07T13:51:37.915Z,0.90
2019-06-07T13:54:05.080Z,0.90
2019-06-07T13:56:32.057Z,0.80
2019-06-07T13:58:59.118Z,1.07
2019-06-07T14:01:29.025Z,0.90
2019-06-07T14:03:56.354Z,1.10
2019-06-07T14:06:23.537Z,0.90
2019-06-07T14:08:50.769Z,1.02
2019-06-07T14:11:19.076Z,1.10
2019-06-07T14:13:46.515Z,0.80
2019-06-07T14:16:15.908Z,1.17
2019-06-07T14:18:43.006Z,1.07
2019-06-07T14:21:10.041Z,0.90
2019-06-07T14:23:48.198Z,1.00
2019-06-07T14:26:06.093Z,1.00
2019-06-07T14:28:34.306Z,1.12
2019-06-07T14:31:02.351Z,0.82
2019-06-07T14:33:30.652Z,0.90
2019-06-07T14:35:59.341Z,0.90
2019-06-07T14:38:27.313Z,1.00
2019-06-07T14:40:55.501Z,1.05
2019-06-07T14:43:23.138Z,1.00
2019-06-07T14:45:50.361Z,1.00
2019-06-07T14:48:17.495Z,0.90
2019-06-07T14:50:44.568Z,0.78
2019-06-07T14:53:11.692Z,1.20
2019-06-07T14:55:38.801Z,1.10
2019-06-07T14:58:05.976Z,1.05
2019-06-07T15:00:38.992Z,1.10
2019-06-07T15:03:06.064Z,1.02
2019-06-07T15:05:33.102Z,1.22
2019-06-07T15:08:00.164Z,1.00
2019-06-07T15:10:28.600Z,1.20
2019-06-07T15:12:55.767Z,1.50
2019-06-07T15:15:22.834Z,1.27
2019-06-07T15:17:49.948Z,1.10
2019-06-07T15:20:16.990Z,1.25
2019-06-07T15:22:44.179Z,1.10
2019-06-07T15:25:11.253Z,1.40
2019-06-07T15:27:39.115Z,1.10
2019-06-07T15:30:10.582Z,1.17
2019-06-07T15:32:38.727Z,1.27
2019-06-07T15:35:06.852Z,1.25
2019-06-07T15:37:34.587Z,1.20
2019-06-07T15:40:01.754Z,1.35
2019-06-07T15:42:42.752Z,1.37
2019-06-07T15:44:58.675Z,1.20
2019-06-07T15:47:25.769Z,1.12
2019-06-07T15:49:52.892Z,1.30
2019-06-07T15:52:20.072Z,1.50
2019-06-07T15:54:47.136Z,1.57
2019-06-07T15:57:14.257Z,1.37
2019-06-07T15:59:41.574Z,1.17
2019-06-07T16:02:08.781Z,1.50
2019-06-07T16:04:35.924Z,1.40
2019-06-07T16:07:03.318Z,1.57
2019-06-07T16:09:30.461Z,1.70
2019-06-07T16:11:57.569Z,1.90
2019-06-07T16:14:24.683Z,1.72
2019-06-07T16:16:51.822Z,2.00
2019-06-07T16:19:18.963Z,1.95
2019-06-07T16:21:46.972Z,2.02
2019-06-07T16:24:14.046Z,2.10
2019-06-07T16:26:42.443Z,2.00
2019-06-07T16:29:09.740Z,2.05
2019-06-07T16:31:36.834Z,2.40
2019-06-07T16:34:04.106Z,1.65
2019-06-07T16:36:31.189Z,2.20
2019-06-07T16:38:58.340Z,2.37
2019-06-07T16:41:25.494Z,2.30
2019-06-07T16:43:52.630Z,2.20
2019-06-07T16:46:21.734Z,2.20
2019-06-07T16:48:49.111Z,2.40
2019-06-07T16:51:16.378Z,2.50
2019-06-07T16:53:45.965Z,2.65
2019-06-07T16:56:13.074Z,2.60
2019-06-07T16:58:40.356Z,2.70
2019-06-07T17:01:07.395Z,2.40
2019-06-07T17:03:34.530Z,2.50
2019-06-07T17:06:03.091Z,3.10
2019-06-07T17:08:30.163Z,2.37
2019-06-07T17:10:58.342Z,3.27
2019-06-07T17:13:33.769Z,3.12
2019-06-07T17:15:59.610Z,2.90
2019-06-07T17:18:27.500Z,3.17
2019-06-07T17:20:54.497Z,3.45
2019-06-07T17:23:21.660Z,3.05
2019-06-07T17:25:49.786Z,3.30
2019-06-07T17:28:16.968Z,3.08
2019-06-07T17:30:44.048Z,3.20
2019-06-07T17:33:12.355Z,3.08
2019-06-07T17:35:40.132Z,3.92
2019-06-07T17:38:07.236Z,3.42
2019-06-07T17:40:34.277Z,2.65
2019-06-07T17:43:02.034Z,4.30
2019-06-07T17:45:29.086Z,4.12
2019-06-07T17:47:56.144Z,4.10
2019-06-07T17:50:23.945Z,3.95
2019-06-07T17:52:52.100Z,3.55
2019-06-07T17:55:19.274Z,4.25
2019-06-07T17:57:46.591Z,3.58
2019-06-07T18:00:28.198Z,3.67
2019-06-07T18:02:44.783Z,4.97
2019-06-07T18:05:11.963Z,3.90
2019-06-07T18:07:39.050Z,3.77
2019-06-07T18:10:08.953Z,3.77
2019-06-07T18:12:36.031Z,4.50
2019-06-07T18:15:06.520Z,4.53
2019-06-07T18:17:34.759Z,4.33
2019-06-07T18:20:05.627Z,3.75
2019-06-07T18:22:32.737Z,4.53
2019-06-07T18:24:59.790Z,3.72
2019-06-07T18:27:26.778Z,3.12
2019-06-07T18:29:54.760Z,4.62
2019-06-07T18:32:21.847Z,4.10
2019-06-07T18:34:48.885Z,3.62
2019-06-07T18:37:15.900Z,3.70
2019-06-07T18:39:42.914Z,4.75
2019-06-07T18:42:10.040Z,4.22
2019-06-07T18:44:37.097Z,4.12
2019-06-07T18:47:04.081Z,4.53
2019-06-07T18:49:31.129Z,3.70
2019-06-07T18:52:17.857Z,3.25
2019-06-07T18:54:44.929Z,3.35
2019-06-07T18:57:12.542Z,4.55
2019-06-07T18:59:39.782Z,3.00
2019-06-07T19:02:06.779Z,4.28
2019-06-07T19:04:33.945Z,3.37
2019-06-07T19:07:00.911Z,4.37
2019-06-07T19:09:28.183Z,3.55
2019-06-07T19:11:55.307Z,3.75
2019-06-07T19:14:36.295Z,3.45
2019-06-07T19:16:53.705Z,3.30
2019-06-07T19:19:22.975Z,3.35
2019-06-07T19:21:50.009Z,4.97
2019-06-07T19:24:18.134Z,4.40
2019-06-07T19:26:47.422Z,4.40
2019-06-07T19:29:16.382Z,3.33
2019-06-07T19:31:43.667Z,4.20
2019-06-07T19:34:11.146Z,5.42
2019-06-07T19:36:48.662Z,4.28
2019-06-07T19:39:10.411Z,4.40
2019-06-07T19:41:38.068Z,4.20
2019-06-07T19:44:05.869Z,4.62
2019-06-07T19:46:33.430Z,5.78
2019-06-07T19:49:00.949Z,5.50
2019-06-07T19:51:28.163Z,7.60
2019-06-07T19:53:55.352Z,4.40
2019-06-07T19:56:22.530Z,4.55
2019-06-07T19:58:49.595Z,2.85
2019-06-07T20:01:16.739Z,3.92
2019-06-07T20:03:43.693Z,2.08
2019-06-07T20:06:10.728Z,4.90
2019-06-07T20:08:37.740Z,5.58
2019-06-07T20:11:04.946Z,3.30
2019-06-07T20:13:31.905Z,3.47
2019-06-07T20:15:59.119Z,4.33
2019-06-07T20:18:27.972Z,5.37
2019-06-07T20:20:56.342Z,3.75
2019-06-07T20:23:23.631Z,3.62
2019-06-07T20:25:50.700Z,2.22
2019-06-07T20:28:17.729Z,2.87
2019-06-07T20:30:45.011Z,3.17
2019-06-07T20:33:12.073Z,3.80
2019-06-07T20:35:39.939Z,3.60
2019-06-07T20:38:06.956Z,3.20
2019-06-07T20:40:34.019Z,2.50
2019-06-07T20:43:01.499Z,3.30
2019-06-07T20:45:33.703Z,4.17
2019-06-07T20:47:58.137Z,4.40
2019-06-07T20:50:25.425Z,3.30
2019-06-07T20:52:52.469Z,3.77
2019-06-07T20:55:19.612Z,4.40
2019-06-07T20:57:46.678Z,3.30
2019-06-07T21:00:21.395Z,4.10
2019-06-07T21:02:43.796Z,4.00
2019-06-07T21:05:11.204Z,3.70
2019-06-07T21:07:38.293Z,3.77
2019-06-07T21:10:08.264Z,3.45
2019-06-07T21:12:35.613Z,2.75
2019-06-07T21:15:09.704Z,3.95
2019-06-07T21:17:33.651Z,3.58
2019-06-07T21:20:00.658Z,3.02
2019-06-07T21:22:28.684Z,3.47
2019-06-07T21:24:55.991Z,5.12
2019-06-07T21:27:23.058Z,5.22
2019-06-07T21:29:50.306Z,3.58
2019-06-07T21:32:17.335Z,3.42
2019-06-07T21:34:44.315Z,3.87
2019-06-07T21:37:13.646Z,3.40
2019-06-07T21:39:40.651Z,3.77
2019-06-07T21:42:08.153Z,4.62
2019-06-07T21:44:39.061Z,3.58
2019-06-07T21:47:08.924Z,4.50
2019-06-07T21:49:35.909Z,2.83
2019-06-07T21:52:04.385Z,3.00
2019-06-07T21:54:31.661Z,4.00
2019-06-07T21:56:58.858Z,4.03
2019-06-07T21:59:25.988Z,4.10
2019-06-07T22:01:53.020Z,2.92
2019-06-07T22:04:21.107Z,3.40
2019-06-07T22:06:48.208Z,3.47
2019-06-07T22:09:15.770Z,3.00
2019-06-07T22:11:42.911Z,4.33
2019-06-07T22:14:12.461Z,4.50
2019-06-07T22:16:39.700Z,3.60
2019-06-07T22:19:06.779Z,2.90
2019-06-07T22:21:34.921Z,4.22
2019-06-07T22:24:02.162Z,4.78
2019-06-07T22:26:29.344Z,3.70
2019-06-07T22:28:56.504Z,3.90
2019-06-07T22:31:23.551Z,3.33
2019-06-07T22:33:50.591Z,3.08
2019-06-07T22:36:17.622Z,3.35
2019-06-07T22:38:44.678Z,4.33
2019-06-07T22:41:12.332Z,3.65
2019-06-07T22:43:41.628Z,3.72
2019-06-07T22:46:08.788Z,3.40
2019-06-07T22:48:35.909Z,4.42
2019-06-07T22:51:08.547Z,3.25
2019-06-07T22:53:36.142Z,3.08
2019-06-07T22:56:04.978Z,3.70
2019-06-07T22:58:32.088Z,3.80
2019-06-07T23:00:59.217Z,4.20
2019-06-07T23:03:26.249Z,4.30
2019-06-07T23:05:53.322Z,3.98
2019-06-07T23:08:20.357Z,4.45
2019-06-07T23:10:48.566Z,5.28
2019-06-07T23:13:15.603Z,3.92
2019-06-07T23:15:42.673Z,4.30
2019-06-07T23:18:09.624Z,4.60
2019-06-07T23:20:36.652Z,5.25
2019-06-07T23:23:03.605Z,4.83
2019-06-07T23:25:30.675Z,5.58
2019-06-07T23:27:57.699Z,4.50
2019-06-07T23:30:25.937Z,5.75
2019-06-07T23:32:52.957Z,7.25
2019-06-07T23:35:21.159Z,6.03
2019-06-07T23:37:48.330Z,4.35
2019-06-07T23:40:17.233Z,4.17
2019-06-07T23:42:44.397Z,3.55
2019-06-07T23:45:12.015Z,3.92
2019-06-07T23:47:40.415Z,4.05
2019-06-07T23:50:07.377Z,3.47
2019-06-07T23:52:34.354Z,4.90
2019-06-07T23:55:01.368Z,4.45
2019-06-07T23:57:28.387Z,4.28
2019-06-07T23:59:55.383Z,4.20
